createdAt,value
2022-12-15T00:02:17.173Z,80.54
2022-12-15T00:05:02.281Z,80.50
2022-12-15T00:07:47.604Z,80.73
2022-12-15T00:10:34.520Z,80.44
2022-12-15T00:13:19.570Z,80.68
2022-12-15T00:16:05.829Z,80.71
2022-12-15T00:18:50.938Z,80.65
2022-12-15T00:21:36.562Z,81.19
2022-12-15T00:24:21.798Z,81.08
2022-12-15T00:27:06.553Z,80.93
2022-12-15T00:29:51.496Z,80.86
2022-12-15T00:32:36.541Z,81.03
2022-12-15T00:35:21.704Z,81.05
2022-12-15T00:38:07.891Z,81.06
2022-12-15T00:40:35.057Z,81.00
2022-12-15T00:43:01.695Z,81.25
2022-12-15T00:45:48.326Z,81.04
2022-12-15T00:48:14.991Z,80.96
2022-12-15T00:50:54.573Z,80.68
2022-12-15T00:53:40.845Z,81.28
2022-12-15T00:56:26.827Z,80.95
2022-12-15T00:59:12.186Z,81.20
2022-12-15T01:01:57.472Z,80.65
2022-12-15T01:04:42.531Z,80.90
2022-12-15T01:07:27.915Z,80.94
2022-12-15T01:10:13.093Z,80.90
2022-12-15T01:12:58.610Z,80.48
2022-12-15T01:15:43.816Z,80.92
2022-12-15T01:18:28.976Z,80.76
2022-12-15T01:21:00.275Z,80.61
2022-12-15T01:23:27.777Z,80.68
2022-12-15T01:25:55.881Z,80.92
2022-12-15T01:28:22.999Z,80.61
2022-12-15T01:30:49.852Z,80.98
2022-12-15T01:33:18.465Z,80.73
2022-12-15T01:35:45.430Z,80.91
2022-12-15T01:38:12.025Z,80.73
2022-12-15T01:40:50.242Z,80.67
2022-12-15T01:43:22.828Z,80.54
2022-12-15T01:45:57.513Z,80.55
2022-12-15T01:48:29.688Z,80.16
2022-12-15T01:51:04.262Z,80.36
2022-12-15T01:53:36.003Z,80.60
2022-12-15T01:56:05.972Z,80.72
2022-12-15T01:58:32.999Z,80.57
2022-12-15T02:01:02.296Z,80.50
2022-12-15T02:03:30.425Z,80.73
2022-12-15T02:06:00.794Z,79.64
2022-12-15T02:08:28.022Z,80.38
2022-12-15T02:10:56.206Z,80.54
2022-12-15T02:13:35.289Z,80.32
2022-12-15T02:16:12.300Z,80.33
2022-12-15T02:18:52.099Z,80.45
2022-12-15T02:21:27.182Z,80.42
2022-12-15T02:24:15.347Z,80.12
2022-12-15T02:27:13.661Z,79.76
2022-12-15T02:29:46.175Z,79.67
2022-12-15T02:32:21.015Z,79.17
2022-12-15T02:35:02.014Z,79.28
2022-12-15T02:37:37.734Z,79.55
2022-12-15T02:40:07.590Z,79.78
2022-12-15T02:42:37.171Z,80.11
2022-12-15T02:45:09.506Z,79.46
2022-12-15T19:52:58.323Z,89.19
2022-12-15T19:55:33.852Z,89.25
2022-12-15T19:58:11.605Z,89.96
2022-12-15T20:00:39.607Z,89.69
2022-12-15T20:03:06.344Z,89.58
2022-12-15T20:05:33.162Z,89.13
2022-12-15T20:08:00.120Z,89.65
2022-12-15T20:10:32.297Z,89.59
2022-12-15T20:13:00.911Z,89.58
2022-12-15T20:15:28.136Z,88.72
2022-12-15T20:17:58.117Z,89.08
2022-12-15T20:20:27.741Z,88.83
2022-12-15T20:22:56.655Z,88.87
2022-12-15T20:25:37.371Z,88.10
2022-12-15T20:28:10.258Z,88.26
2022-12-15T20:30:37.991Z,88.48
2022-12-15T20:33:05.317Z,88.08
2022-12-15T20:35:34.679Z,87.43
2022-12-15T20:38:06.202Z,87.33
2022-12-15T20:40:33.070Z,87.56
2022-12-15T20:42:59.683Z,87.57
2022-12-15T20:45:28.033Z,88.26
2022-12-15T20:47:56.063Z,87.81
2022-12-15T20:50:39.068Z,87.44
2022-12-15T20:53:22.316Z,87.35
2022-12-15T20:55:51.049Z,87.57
2022-12-15T20:58:18.493Z,87.08
2022-12-15T21:00:46.098Z,86.57
2022-12-15T21:03:29.982Z,86.18
2022-12-15T21:05:58.777Z,85.57
2022-12-15T21:08:28.020Z,85.52
2022-12-15T21:10:59.910Z,85.01
2022-12-15T21:13:30.327Z,85.67
2022-12-15T21:15:57.270Z,84.87
2022-12-15T21:21:18.794Z,84.68
2022-12-15T21:23:46.558Z,85.08
2022-12-15T21:26:18.427Z,85.04
2022-12-15T21:28:45.098Z,84.68
2022-12-15T21:31:12.180Z,84.69
2022-12-15T21:33:38.774Z,84.46
2022-12-15T21:36:05.666Z,84.56
2022-12-15T21:38:37.725Z,84.23
2022-12-15T21:41:07.397Z,84.08
2022-12-15T21:43:35.872Z,83.72
2022-12-15T21:46:10.448Z,84.01
2022-12-15T21:48:55.515Z,83.92
2022-12-15T21:51:23.797Z,83.65
2022-12-15T21:53:51.139Z,84.11
2022-12-15T21:56:20.313Z,83.37
2022-12-15T21:58:54.791Z,83.20
2022-12-15T22:01:30.558Z,83.34
2022-12-15T22:04:02.870Z,82.79
2022-12-15T22:06:30.773Z,82.55
2022-12-15T22:08:58.763Z,82.31
2022-12-15T22:11:28.350Z,82.50
2022-12-15T22:13:57.072Z,83.19
2022-12-15T22:16:23.970Z,83.25
2022-12-15T22:18:54.967Z,83.15
2022-12-15T22:21:22.208Z,83.04
2022-12-15T22:23:48.818Z,83.20
2022-12-15T22:26:34.317Z,83.20
2022-12-15T22:29:02.023Z,83.28
2022-12-15T22:31:29.441Z,83.50
2022-12-15T22:33:56.084Z,83.59
2022-12-15T22:36:22.650Z,83.51
2022-12-15T22:38:49.225Z,83.20
2022-12-15T22:41:23.220Z,82.92
2022-12-15T22:43:55.172Z,83.08
2022-12-15T22:46:24.334Z,83.08
2022-12-15T22:48:52.889Z,82.52
2022-12-15T22:51:21.726Z,82.23
2022-12-15T22:53:49.145Z,82.47
2022-12-15T22:56:21.094Z,81.83
2022-12-15T22:58:50.142Z,82.43
2022-12-15T23:01:19.154Z,82.47
2022-12-15T23:03:45.801Z,82.39
2022-12-15T23:06:12.590Z,81.83
2022-12-15T23:08:39.116Z,82.82
2022-12-15T23:11:24.247Z,82.53
2022-12-15T23:13:50.782Z,83.04
2022-12-15T23:16:21.619Z,83.37
2022-12-15T23:18:53.666Z,82.92
2022-12-15T23:21:22.568Z,83.01
2022-12-15T23:23:49.504Z,82.71
2022-12-15T23:26:19.278Z,82.33
2022-12-15T23:28:46.283Z,82.47
2022-12-15T23:31:13.027Z,82.98
2022-12-15T23:33:41.794Z,82.58
2022-12-15T23:36:09.891Z,81.97
2022-12-15T23:38:36.519Z,82.04
2022-12-15T23:41:03.217Z,81.50
2022-12-15T23:43:32.842Z,81.13
2022-12-15T23:46:03.171Z,80.82
2022-12-15T23:48:32.289Z,80.58
2022-12-15T23:51:24.445Z,80.33
2022-12-15T23:53:52.331Z,80.41
2022-12-15T23:56:24.113Z,80.18
2022-12-15T23:58:56.600Z,80.45
